Time;durP1;ratioP1;P1;durP2;ratioP2;P2;SDS_P1;SDS_P2;PMS_P1;PMS_P2;Temp;Humidity;BMP_temperature;BMP_pressure;BME280_temperature;BME280_humidity;BME280_pressure;Samples;Min_cycle;Max_cycle;Signal;HPM_P1;HPM_P2
2021/08/26 00:06:55;;;;;;;6.28;4.55;;;19.00;92.90;;;;;;5073312;28;20450;-81
2021/08/26 00:09:20;;;;;;;9.10;5.35;;;18.90;93.00;;;;;;5055220;28;20427;-82
2021/08/26 00:11:48;;;;;;;8.90;4.63;;;19.00;93.50;;;;;;5072869;28;20123;-82
2021/08/26 00:14:14;;;;;;;7.32;5.10;;;18.90;93.40;;;;;;5054925;28;20021;-82
2021/08/26 00:16:41;;;;;;;8.93;4.85;;;18.80;93.90;;;;;;5072688;28;20477;-82
2021/08/26 00:19:07;;;;;;;6.25;4.80;;;18.80;93.80;;;;;;5054899;28;20178;-81
2021/08/26 00:21:33;;;;;;;10.40;5.15;;;18.80;94.10;;;;;;5054801;28;20024;-81
2021/08/26 00:23:59;;;;;;;6.75;4.90;;;18.80;94.50;;;;;;5073006;28;20024;-81
2021/08/26 00:26:25;;;;;;;8.27;5.20;;;18.70;94.40;;;;;;5073003;28;20388;-82
2021/08/26 00:28:50;;;;;;;8.50;5.20;;;18.70;94.50;;;;;;5072734;28;20028;-82
2021/08/26 00:31:16;;;;;;;11.55;5.18;;;18.60;94.80;;;;;;5072245;28;20099;-81
2021/08/26 00:33:41;;;;;;;7.78;4.55;;;18.60;95.30;;;;;;5072597;28;20078;-82
2021/08/26 00:36:07;;;;;;;7.63;4.43;;;18.70;95.50;;;;;;5072568;28;20025;-81
2021/08/26 00:38:33;;;;;;;9.45;5.63;;;18.60;95.00;;;;;;5072556;28;20107;-82
2021/08/26 00:40:59;;;;;;;7.07;4.70;;;18.60;95.60;;;;;;5072438;28;20023;-82
2021/08/26 00:43:31;;;;;;;7.72;5.47;;;18.60;95.60;;;;;;5072420;28;20025;-82
2021/08/26 00:45:58;;;;;;;7.28;4.75;;;18.60;95.70;;;;;;5072237;28;20028;-82
2021/08/26 00:48:25;;;;;;;7.95;5.22;;;18.50;96.00;;;;;;5072179;28;20108;-82
2021/08/26 00:50:53;;;;;;;11.23;5.35;;;18.50;96.00;;;;;;5070879;28;20100;-81
2021/08/26 00:53:23;;;;;;;7.60;4.75;;;18.50;96.30;;;;;;5072248;28;20024;-82
2021/08/26 00:55:49;;;;;;;7.68;4.82;;;18.50;96.40;;;;;;5072164;28;20024;-82
2021/08/26 00:58:14;;;;;;;8.65;4.97;;;18.50;96.40;;;;;;5071985;28;20051;-82
2021/08/26 01:00:46;;;;;;;7.30;5.03;;;18.50;96.50;;;;;;5072089;28;20484;-81
2021/08/26 01:03:16;;;;;;;8.98;4.90;;;18.40;96.60;;;;;;5071740;28;20089;-82
2021/08/26 01:05:54;;;;;;;6.90;4.97;;;18.30;97.10;;;;;;5072143;28;20108;-82
2021/08/26 01:08:25;;;;;;;6.07;4.95;;;18.30;97.30;;;;;;5071769;28;20520;-81
2021/08/26 01:10:55;;;;;;;6.90;4.70;;;18.30;97.40;;;;;;5071946;28;20043;-81
2021/08/26 01:13:21;;;;;;;6.63;4.70;;;18.30;97.70;;;;;;5071826;28;20035;-82
2021/08/26 01:16:09;;;;;;;7.65;5.47;;;18.20;97.70;;;;;;5071778;28;20025;-81
2021/08/26 01:18:39;;;;;;;9.10;5.03;;;18.20;97.90;;;;;;5071645;28;20017;-81
2021/08/26 01:21:13;;;;;;;6.15;4.78;;;18.20;98.20;;;;;;5071899;28;20025;-81
2021/08/26 01:23:44;;;;;;;7.60;4.90;;;18.20;98.30;;;;;;5071623;28;20080;-82
2021/08/26 01:26:15;;;;;;;12.15;5.60;;;18.10;98.20;;;;;;5071602;28;20028;-81
2021/08/26 01:28:42;;;;;;;7.20;4.80;;;18.10;98.30;;;;;;5071633;28;20070;-81
2021/08/26 01:31:08;;;;;;;8.45;5.35;;;18.00;98.50;;;;;;5071175;28;20123;-81
2021/08/26 01:33:34;;;;;;;8.38;5.35;;;18.00;99.00;;;;;;5070401;28;20029;-82
2021/08/26 01:36:06;;;;;;;8.43;5.15;;;18.00;98.70;;;;;;5071135;28;20035;-82
2021/08/26 01:38:32;;;;;;;7.72;5.10;;;17.90;98.90;;;;;;5071395;28;20031;-82
2021/08/26 01:40:58;;;;;;;7.35;5.15;;;18.00;99.10;;;;;;5070958;28;20017;-81
2021/08/26 01:43:24;;;;;;;8.23;5.22;;;18.00;99.10;;;;;;5071272;28;20024;-81
2021/08/26 01:45:50;;;;;;;8.80;5.55;;;17.90;99.20;;;;;;5071049;28;20041;-81
2021/08/26 01:48:17;;;;;;;8.60;4.90;;;17.90;99.20;;;;;;5071078;28;20136;-81
2021/08/26 01:50:51;;;;;;;8.80;5.05;;;17.80;99.40;;;;;;5071166;28;20021;-81
2021/08/26 01:53:17;;;;;;;7.20;5.00;;;17.80;99.40;;;;;;5071003;28;20111;-81
2021/08/26 01:55:45;;;;;;;9.60;5.50;;;17.80;99.50;;;;;;5070918;28;20021;-81
2021/08/26 01:58:12;;;;;;;10.50;5.20;;;17.80;99.70;;;;;;5071193;28;20512;-82
2021/08/26 02:00:38;;;;;;;7.00;5.10;;;17.80;99.70;;;;;;5070999;28;20263;-81
2021/08/26 02:03:04;;;;;;;7.30;5.22;;;17.70;99.80;;;;;;5070391;28;20091;-81
2021/08/26 02:05:30;;;;;;;8.07;4.90;;;17.70;99.80;;;;;;5070851;28;20147;-82
2021/08/26 02:07:55;;;;;;;9.20;5.40;;;17.70;99.90;;;;;;5070480;28;20025;-82
2021/08/26 02:10:22;;;;;;;9.88;4.88;;;17.70;99.90;;;;;;5070785;28;20117;-82
2021/08/26 02:12:48;;;;;;;7.45;4.90;;;17.70;99.90;;;;;;5070551;28;20032;-81
2021/08/26 02:15:15;;;;;;;9.15;5.22;;;17.70;99.90;;;;;;5071000;28;20318;-82
2021/08/26 02:17:41;;;;;;;7.05;5.00;;;17.70;99.90;;;;;;5070532;28;20192;-81
2021/08/26 02:20:07;;;;;;;7.57;5.00;;;17.60;99.90;;;;;;5070493;28;20172;-81
2021/08/26 02:22:34;;;;;;;6.68;5.53;;;17.50;99.90;;;;;;5069736;28;20542;-81
2021/08/26 02:24:59;;;;;;;6.18;5.25;;;17.50;99.90;;;;;;5070266;28;20017;-82
2021/08/26 02:27:25;;;;;;;6.80;5.32;;;17.50;99.90;;;;;;5070351;28;20492;-82
2021/08/26 02:29:51;;;;;;;7.28;4.65;;;17.50;99.90;;;;;;5069939;28;20045;-81
2021/08/26 02:32:16;;;;;;;8.77;5.30;;;17.40;99.90;;;;;;5070051;28;20506;-81
2021/08/26 02:34:42;;;;;;;6.70;5.25;;;17.40;99.90;;;;;;5070237;28;20020;-81
2021/08/26 02:37:08;;;;;;;9.45;5.38;;;17.40;99.90;;;;;;5052266;28;20024;-81
2021/08/26 02:39:34;;;;;;;6.15;4.70;;;17.40;99.90;;;;;;5069971;28;20190;-81
2021/08/26 02:42:01;;;;;;;7.65;5.00;;;17.40;99.90;;;;;;5069994;28;20108;-82
2021/08/26 02:44:27;;;;;;;8.93;5.30;;;17.40;99.90;;;;;;5070128;28;20029;-81
2021/08/26 02:46:52;;;;;;;8.23;5.97;;;17.40;99.90;;;;;;5070042;28;20063;-82
2021/08/26 02:49:18;;;;;;;6.80;5.20;;;17.40;99.90;;;;;;5050913;28;20031;-81
2021/08/26 02:51:44;;;;;;;6.38;5.13;;;17.40;99.90;;;;;;5057013;28;20041;-81
2021/08/26 02:54:09;;;;;;;8.43;5.55;;;17.30;99.90;;;;;;5069965;28;20074;-81
2021/08/26 02:56:35;;;;;;;7.45;5.22;;;17.40;99.90;;;;;;5051783;28;20200;-81
2021/08/26 02:59:00;;;;;;;9.02;5.20;;;17.30;99.90;;;;;;5069955;28;20027;-81
2021/08/26 03:01:26;;;;;;;6.90;5.50;;;17.30;99.90;;;;;;5049285;28;20036;-81
2021/08/26 03:03:52;;;;;;;9.15;5.28;;;17.30;99.90;;;;;;5058555;28;20445;-81
2021/08/26 03:06:18;;;;;;;10.38;5.50;;;17.30;99.90;;;;;;5069965;28;20602;-81
2021/08/26 03:08:43;;;;;;;6.65;4.95;;;17.20;99.90;;;;;;5069861;28;20040;-81
2021/08/26 03:11:12;;;;;;;8.80;5.15;;;17.20;99.90;;;;;;5069695;28;20060;-82
2021/08/26 03:13:38;;;;;;;7.22;5.13;;;17.20;99.90;;;;;;5069192;28;20020;-81
2021/08/26 03:16:05;;;;;;;8.45;4.88;;;17.20;99.90;;;;;;5051385;28;20031;-81
2021/08/26 03:18:31;;;;;;;8.43;5.85;;;17.20;99.90;;;;;;5055017;28;20064;-81
2021/08/26 03:20:57;;;;;;;8.50;5.07;;;17.20;99.90;;;;;;5069680;28;20070;-81
2021/08/26 03:23:22;;;;;;;6.63;5.22;;;17.10;99.90;;;;;;5069486;28;20024;-81
2021/08/26 03:25:48;;;;;;;7.22;5.38;;;17.10;99.90;;;;;;5069796;28;20034;-81
2021/08/26 03:28:15;;;;;;;9.48;5.88;;;17.10;99.90;;;;;;5069868;28;20108;-82
2021/08/26 03:30:41;;;;;;;7.30;5.75;;;17.10;99.90;;;;;;5069010;28;20064;-82
2021/08/26 03:33:06;;;;;;;7.30;4.95;;;17.00;99.90;;;;;;5069705;28;20025;-81
2021/08/26 03:35:32;;;;;;;7.80;5.57;;;17.00;99.90;;;;;;5069414;28;20032;-81
2021/08/26 03:37:58;;;;;;;7.18;5.68;;;17.00;99.90;;;;;;5069520;28;20013;-81
2021/08/26 03:40:24;;;;;;;8.40;5.68;;;16.90;99.90;;;;;;5069391;28;20028;-81
2021/08/26 03:42:49;;;;;;;7.53;5.75;;;16.90;99.90;;;;;;5069386;28;20032;-81
2021/08/26 03:45:15;;;;;;;11.20;5.88;;;16.90;99.90;;;;;;5069367;28;20052;-81
2021/08/26 03:47:41;;;;;;;8.65;5.32;;;16.90;99.90;;;;;;5069055;28;20024;-82
2021/08/26 03:50:07;;;;;;;10.13;5.85;;;16.90;99.90;;;;;;5069449;28;20046;-82
2021/08/26 03:52:33;;;;;;;6.47;5.40;;;16.90;99.90;;;;;;5068987;28;20124;-82
2021/08/26 03:54:58;;;;;;;7.82;5.63;;;16.90;99.90;;;;;;5069306;28;20095;-82
2021/08/26 03:57:24;;;;;;;9.90;5.93;;;16.90;99.90;;;;;;5069198;28;20029;-81
2021/08/26 03:59:49;;;;;;;10.57;5.70;;;16.80;99.90;;;;;;5069274;28;20025;-82
2021/08/26 04:02:15;;;;;;;10.02;5.75;;;16.90;99.90;;;;;;5069119;28;20027;-81
2021/08/26 04:04:41;;;;;;;8.13;5.72;;;16.90;99.90;;;;;;5068891;28;20103;-82
2021/08/26 04:07:06;;;;;;;7.93;5.85;;;16.90;99.90;;;;;;5069508;28;20469;-81
2021/08/26 04:09:32;;;;;;;10.00;5.90;;;16.90;99.90;;;;;;5068953;28;20397;-81
2021/08/26 04:11:58;;;;;;;7.05;5.85;;;16.80;99.90;;;;;;5050988;28;20516;-81
2021/08/26 04:14:23;;;;;;;9.07;5.53;;;16.80;99.90;;;;;;5069128;28;20029;-81
2021/08/26 04:16:49;;;;;;;8.57;6.00;;;16.80;99.90;;;;;;5068728;28;20020;-81
2021/08/26 04:19:15;;;;;;;8.65;6.28;;;16.70;99.90;;;;;;5069017;28;20436;-81
2021/08/26 04:21:40;;;;;;;8.57;6.25;;;16.70;99.90;;;;;;5047543;28;20017;-81
2021/08/26 04:24:06;;;;;;;9.05;5.85;;;16.70;99.90;;;;;;5058854;28;20024;-81
2021/08/26 04:26:32;;;;;;;8.55;5.85;;;16.70;99.90;;;;;;5071489;28;20032;-81
2021/08/26 04:28:58;;;;;;;9.10;5.82;;;16.60;99.90;;;;;;5072550;28;20020;-82
2021/08/26 04:31:23;;;;;;;7.63;5.88;;;16.60;99.90;;;;;;5072079;28;20451;-82
2021/08/26 04:33:49;;;;;;;9.07;6.35;;;16.60;99.90;;;;;;5072523;28;20639;-81
2021/08/26 04:36:15;;;;;;;8.77;5.93;;;16.60;99.90;;;;;;5052179;28;20048;-81
2021/08/26 04:38:40;;;;;;;8.45;6.20;;;16.60;99.90;;;;;;5054328;28;20059;-81
2021/08/26 04:41:06;;;;;;;8.52;5.82;;;16.60;99.90;;;;;;5072381;28;20028;-81
2021/08/26 04:43:32;;;;;;;10.57;6.03;;;16.50;99.90;;;;;;5072189;28;20492;-82
2021/08/26 04:45:58;;;;;;;9.80;6.70;;;16.50;99.90;;;;;;5072120;28;20377;-81
2021/08/26 04:48:23;;;;;;;9.48;6.38;;;16.40;99.90;;;;;;5072654;28;20650;-81
2021/08/26 04:50:49;;;;;;;9.88;5.97;;;16.50;99.90;;;;;;5072169;28;20164;-81
2021/08/26 04:53:15;;;;;;;8.27;6.50;;;16.50;99.90;;;;;;5072104;28;20037;-81
2021/08/26 04:55:41;;;;;;;8.30;6.30;;;16.50;99.90;;;;;;5072267;28;20082;-81
2021/08/26 04:58:07;;;;;;;9.02;6.00;;;16.40;99.90;;;;;;5071938;28;20017;-82
2021/08/26 05:00:33;;;;;;;10.07;6.03;;;16.40;99.90;;;;;;5072023;28;20029;-81
2021/08/26 05:02:58;;;;;;;9.00;6.47;;;16.40;99.90;;;;;;5071985;28;20036;-81
2021/08/26 05:05:24;;;;;;;8.15;5.95;;;16.50;99.90;;;;;;5072139;28;20043;-82
2021/08/26 05:07:50;;;;;;;11.02;6.15;;;16.50;99.90;;;;;;5071822;28;20025;-82
2021/08/26 05:10:16;;;;;;;12.10;6.60;;;16.40;99.90;;;;;;5072244;28;20020;-82
2021/08/26 05:12:41;;;;;;;10.30;6.50;;;16.40;99.90;;;;;;5071896;28;20043;-83
2021/08/26 05:15:07;;;;;;;9.27;5.80;;;16.50;99.90;;;;;;5072067;28;20017;-83
2021/08/26 05:17:33;;;;;;;10.20;6.03;;;16.50;99.90;;;;;;5071740;28;20040;-83
2021/08/26 05:19:58;;;;;;;10.63;6.70;;;16.50;99.90;;;;;;5070070;28;20038;-82
2021/08/26 05:22:24;;;;;;;8.60;6.10;;;16.50;99.90;;;;;;5071855;28;20520;-84
2021/08/26 05:24:51;;;;;;;13.85;6.18;;;16.40;99.90;;;;;;5071937;28;20024;-84
2021/08/26 05:27:18;;;;;;;10.32;6.47;;;16.40;99.90;;;;;;5071363;28;20024;-84
2021/08/26 05:29:44;;;;;;;9.75;5.95;;;16.40;99.90;;;;;;5071363;28;20040;-84
2021/08/26 05:32:10;;;;;;;12.05;6.07;;;16.30;99.90;;;;;;5053249;28;20090;-83
2021/08/26 05:34:36;;;;;;;9.32;6.45;;;16.30;99.90;;;;;;5071327;28;20024;-82
2021/08/26 05:37:02;;;;;;;9.05;6.65;;;16.30;99.90;;;;;;5071024;28;20112;-83
2021/08/26 05:39:28;;;;;;;9.48;6.03;;;16.20;99.90;;;;;;5071237;28;20099;-83
2021/08/26 05:41:53;;;;;;;11.63;6.78;;;16.30;99.90;;;;;;5071389;28;20104;-83
2021/08/26 05:44:19;;;;;;;14.07;7.07;;;16.30;99.90;;;;;;5071053;28;20120;-82
2021/08/26 05:46:46;;;;;;;8.50;6.50;;;16.30;99.90;;;;;;5053131;28;20016;-83
2021/08/26 05:49:12;;;;;;;8.65;6.72;;;16.30;99.90;;;;;;5057784;28;20382;-83
2021/08/26 05:51:38;;;;;;;11.07;7.25;;;16.30;99.90;;;;;;5070538;28;20025;-83
2021/08/26 05:54:03;;;;;;;9.23;6.25;;;16.40;99.90;;;;;;5071046;28;20507;-83
2021/08/26 05:56:30;;;;;;;9.88;6.28;;;16.40;99.90;;;;;;5070916;28;20017;-83
2021/08/26 05:58:56;;;;;;;7.50;6.32;;;16.40;99.90;;;;;;5071058;28;20032;-83
2021/08/26 06:01:26;;;;;;;8.52;6.18;;;16.40;99.90;;;;;;5070719;28;20027;-93
2021/08/26 06:03:52;;;;;;;10.75;6.80;;;16.40;99.90;;;;;;5070266;28;20025;-83
2021/08/26 06:06:18;;;;;;;7.80;5.70;;;16.50;99.90;;;;;;5070518;28;20020;-83
2021/08/26 06:08:43;;;;;;;11.88;6.75;;;16.40;99.90;;;;;;5070604;28;20024;-83
2021/08/26 06:11:09;;;;;;;8.57;6.75;;;16.50;99.90;;;;;;5070573;28;20024;-83
2021/08/26 06:13:35;;;;;;;15.43;6.97;;;16.50;99.90;;;;;;5070616;28;20091;-83
2021/08/26 06:16:01;;;;;;;11.68;7.22;;;16.60;99.90;;;;;;5052556;28;20115;-83
2021/08/26 06:18:26;;;;;;;9.25;6.20;;;16.60;99.90;;;;;;5050930;28;20061;-83
2021/08/26 06:20:52;;;;;;;7.40;6.25;;;16.70;99.90;;;;;;5070526;28;20024;-83
2021/08/26 06:23:18;;;;;;;14.55;6.28;;;16.70;99.90;;;;;;5070623;28;20077;-83
2021/08/26 06:25:43;;;;;;;7.95;5.97;;;16.70;99.90;;;;;;5070308;28;20127;-83
2021/08/26 06:28:09;;;;;;;9.15;7.00;;;16.70;99.90;;;;;;5070202;28;20029;-83
2021/08/26 06:30:35;;;;;;;8.30;6.82;;;16.70;99.90;;;;;;5071576;28;20052;-83
2021/08/26 06:33:01;;;;;;;10.05;6.40;;;16.80;99.90;;;;;;5089015;28;20028;-83
2021/08/26 06:35:26;;;;;;;7.82;6.05;;;16.80;99.90;;;;;;5076136;28;20111;-83
2021/08/26 06:37:52;;;;;;;8.23;6.63;;;16.90;99.90;;;;;;5090505;28;20380;-83
2021/08/26 06:40:18;;;;;;;8.25;6.38;;;17.00;99.90;;;;;;5090363;28;20020;-83
2021/08/26 06:42:44;;;;;;;10.57;7.38;;;16.90;99.90;;;;;;5090070;28;20020;-83
2021/08/26 06:45:10;;;;;;;7.70;6.28;;;17.00;99.90;;;;;;5090298;28;20028;-83
2021/08/26 06:47:36;;;;;;;11.27;7.38;;;17.10;99.90;;;;;;5090041;28;20287;-83
2021/08/26 06:50:02;;;;;;;10.18;6.45;;;17.10;99.90;;;;;;5089567;28;20502;-83
2021/08/26 06:52:28;;;;;;;12.88;7.10;;;17.20;99.90;;;;;;5088735;28;20081;-83
2021/08/26 06:54:53;;;;;;;9.00;6.10;;;17.20;99.90;;;;;;5089010;28;20055;-83
2021/08/26 06:57:19;;;;;;;11.50;6.88;;;17.30;99.90;;;;;;5089958;28;20028;-83
2021/08/26 06:59:45;;;;;;;8.15;6.95;;;17.30;99.90;;;;;;5090103;28;20020;-83
2021/08/26 07:02:11;;;;;;;8.40;6.80;;;17.40;99.90;;;;;;5089729;28;20030;-83
2021/08/26 07:04:37;;;;;;;9.57;6.57;;;17.40;99.90;;;;;;5089916;28;20012;-83
2021/08/26 07:07:02;;;;;;;8.00;6.72;;;17.30;99.90;;;;;;5090100;28;20051;-83
2021/08/26 07:09:28;;;;;;;8.50;6.25;;;17.40;99.90;;;;;;5089728;28;20024;-83
2021/08/26 07:11:54;;;;;;;11.05;6.32;;;17.50;99.90;;;;;;5089670;28;20035;-83
2021/08/26 07:14:20;;;;;;;14.60;7.00;;;17.70;99.90;;;;;;5089421;28;20105;-83
2021/08/26 07:16:46;;;;;;;10.05;6.18;;;17.80;99.90;;;;;;5089796;28;20099;-83
2021/08/26 07:19:12;;;;;;;10.07;6.50;;;17.90;99.90;;;;;;5089709;28;20036;-83
2021/08/26 07:21:37;;;;;;;8.90;6.38;;;18.00;99.90;;;;;;5090085;28;20077;-83
2021/08/26 07:24:04;;;;;;;8.98;6.18;;;18.10;99.90;;;;;;5089805;28;20024;-83
2021/08/26 07:26:30;;;;;;;8.85;6.30;;;18.10;99.90;;;;;;5089757;28;20016;-83
2021/08/26 07:28:55;;;;;;;11.18;6.80;;;18.30;99.90;;;;;;5089677;28;20024;-83
2021/08/26 07:31:22;;;;;;;13.07;6.25;;;18.30;99.90;;;;;;5087982;28;20047;-84
2021/08/26 07:33:48;;;;;;;11.45;6.50;;;18.30;99.90;;;;;;5088238;28;20024;-83
2021/08/26 07:36:13;;;;;;;9.38;6.50;;;18.30;99.90;;;;;;5089738;28;20021;-83
2021/08/26 07:38:39;;;;;;;10.27;6.00;;;18.40;99.90;;;;;;5089524;28;20019;-83
2021/08/26 07:41:06;;;;;;;12.07;6.05;;;18.50;99.90;;;;;;5079643;28;20435;-83
2021/08/26 07:43:35;;;;;;;10.45;6.25;;;18.60;99.90;;;;;;5085650;28;20051;-83
2021/08/26 07:46:00;;;;;;;14.50;5.95;;;18.70;99.90;;;;;;5076842;28;20017;-84
2021/08/26 07:48:26;;;;;;;12.52;5.88;;;18.90;99.90;;;;;;5070321;28;20085;-83
2021/08/26 07:50:53;;;;;;;9.98;5.43;;;18.90;99.90;;;;;;5075330;28;20020;-83
2021/08/26 07:53:22;;;;;;;11.48;5.72;;;19.00;99.90;;;;;;5085942;28;20043;-83
2021/08/26 07:55:47;;;;;;;9.18;5.82;;;19.10;99.90;;;;;;5078493;28;20436;-83
2021/08/26 07:58:13;;;;;;;9.88;5.75;;;19.20;99.90;;;;;;5089516;28;20098;-83
2021/08/26 08:00:39;;;;;;;12.82;5.50;;;19.20;99.90;;;;;;5090879;28;20393;-83
2021/08/26 08:03:05;;;;;;;12.68;5.90;;;19.40;99.90;;;;;;5080598;28;20039;-84
2021/08/26 08:05:31;;;;;;;11.82;6.00;;;19.50;99.90;;;;;;5091757;28;20048;-84
2021/08/26 08:07:57;;;;;;;7.13;5.53;;;19.60;99.90;;;;;;5091992;28;20082;-84
2021/08/26 08:10:23;;;;;;;9.18;5.40;;;19.80;99.90;;;;;;5091689;28;20428;-84
2021/08/26 08:12:49;;;;;;;9.10;5.70;;;19.90;99.90;;;;;;5091858;28;20028;-83
2021/08/26 08:15:14;;;;;;;7.22;5.05;;;19.90;99.90;;;;;;5093203;28;20031;-84
2021/08/26 08:17:40;;;;;;;8.05;5.10;;;20.00;99.90;;;;;;5082044;28;20036;-84
2021/08/26 08:20:08;;;;;;;10.45;5.07;;;20.10;99.90;;;;;;5072861;28;20021;-84
2021/08/26 08:22:33;;;;;;;7.90;5.05;;;20.20;99.90;;;;;;5075250;28;20032;-83
2021/08/26 08:24:59;;;;;;;7.47;4.95;;;20.30;99.90;;;;;;5091310;28;20020;-84
2021/08/26 08:27:25;;;;;;;10.13;4.63;;;20.40;99.90;;;;;;5079125;28;20384;-84
2021/08/26 08:29:51;;;;;;;10.43;5.18;;;20.40;99.90;;;;;;5077491;28;20048;-84
2021/08/26 08:32:16;;;;;;;6.55;4.78;;;20.40;99.90;;;;;;5092503;28;20036;-84
2021/08/26 08:34:42;;;;;;;8.68;5.00;;;20.50;99.90;;;;;;5081282;28;20130;-84
2021/08/26 08:37:08;;;;;;;10.45;5.60;;;20.60;99.90;;;;;;5089880;28;20028;-84
2021/08/26 08:39:33;;;;;;;9.68;4.93;;;20.70;99.90;;;;;;5092805;28;20024;-85
2021/08/26 08:41:59;;;;;;;7.75;5.28;;;20.70;99.90;;;;;;5092544;28;20395;-84
2021/08/26 08:44:25;;;;;;;10.45;5.15;;;20.80;99.90;;;;;;5092871;28;20158;-84
2021/08/26 08:46:57;;;;;;;5.78;4.82;;;20.90;99.90;;;;;;5092515;28;20024;-84
2021/08/26 08:49:24;;;;;;;8.73;5.60;;;21.00;99.80;;;;;;5092594;28;20024;-83
2021/08/26 08:51:52;;;;;;;6.28;4.50;;;21.10;99.90;;;;;;5080408;28;20025;-84
2021/08/26 08:54:19;;;;;;;8.93;5.13;;;21.10;99.80;;;;;;5090388;28;20020;-84
2021/08/26 08:56:45;;;;;;;10.25;4.47;;;21.30;99.90;;;;;;5091230;28;20488;-84
2021/08/26 08:59:11;;;;;;;11.80;4.97;;;21.40;99.60;;;;;;5092471;28;20023;-84
2021/08/26 09:01:37;;;;;;;10.00;4.57;;;21.50;99.20;;;;;;5090791;28;20377;-84
2021/08/26 09:04:06;;;;;;;6.95;4.70;;;21.70;99.00;;;;;;5092067;28;20019;-83
2021/08/26 09:06:42;;;;;;;7.28;4.43;;;21.80;99.00;;;;;;5076963;28;20108;-84
2021/08/26 09:09:09;;;;;;;14.13;4.97;;;21.90;98.70;;;;;;5079194;28;20054;-84
2021/08/26 09:11:36;;;;;;;12.98;4.78;;;21.90;98.60;;;;;;5091500;28;20030;-84
2021/08/26 09:14:10;;;;;;;14.32;4.25;;;21.90;98.50;;;;;;5091552;28;20130;-84
2021/08/26 09:16:38;;;;;;;7.20;4.70;;;22.10;98.00;;;;;;5091999;28;20031;-84
2021/08/26 09:19:33;;;;;;;7.45;4.28;;;22.30;98.00;;;;;;5091936;28;20028;-84
2021/08/26 09:22:00;;;;;;;;;;;22.40;97.80;;;;;;5092315;28;20024;-84
2021/08/26 09:24:41;;;;;;;6.50;4.35;;;22.50;97.30;;;;;;5091972;28;20439;-84
2021/08/26 09:27:07;;;;;;;6.90;4.25;;;22.60;97.10;;;;;;5091738;28;20125;-84
2021/08/26 09:29:33;;;;;;;7.30;4.13;;;22.70;97.30;;;;;;5082955;28;20490;-83
2021/08/26 09:31:59;;;;;;;6.30;4.00;;;22.80;96.90;;;;;;5073250;28;20070;-83
2021/08/26 09:34:25;;;;;;;6.40;3.90;;;22.90;96.60;;;;;;5091558;28;20020;-83
2021/08/26 09:36:53;;;;;;;5.38;4.70;;;23.00;96.40;;;;;;5091537;28;20456;-84
2021/08/26 09:39:29;;;;;;;8.35;4.05;;;23.10;96.30;;;;;;5091431;28;20020;-84
2021/08/26 09:42:04;;;;;;;8.25;3.80;;;23.20;95.80;;;;;;5091453;28;20271;-84
2021/08/26 09:44:36;;;;;;;5.35;4.13;;;23.20;95.90;;;;;;5073612;28;20427;-84
2021/08/26 09:47:06;;;;;;;9.65;3.83;;;23.30;95.30;;;;;;5090976;28;20020;-84
2021/08/26 09:49:39;;;;;;;6.10;4.60;;;23.40;94.70;;;;;;5073189;28;20031;-84
2021/08/26 09:52:12;;;;;;;5.78;4.18;;;23.50;95.10;;;;;;5091237;28;20173;-84
2021/08/26 09:54:51;;;;;;;6.70;5.00;;;23.60;94.60;;;;;;5078191;28;20027;-84
2021/08/26 09:57:39;;;;;;;7.45;5.43;;;23.70;94.70;;;;;;5091015;28;20024;-84
2021/08/26 10:00:05;;;;;;;7.88;3.50;;;23.90;94.00;;;;;;5072984;28;20400;-84
2021/08/26 10:02:31;;;;;;;4.45;3.72;;;24.00;93.30;;;;;;5090669;28;20065;-84
2021/08/26 10:04:58;;;;;;;3.95;3.30;;;24.00;93.10;;;;;;5073008;28;20032;-84
2021/08/26 10:07:26;;;;;;;6.38;3.15;;;24.10;93.00;;;;;;5090999;28;20051;-84
2021/08/26 10:09:52;;;;;;;6.30;3.80;;;24.20;92.90;;;;;;5090839;28;20020;-84
2021/08/26 10:12:18;;;;;;;7.18;3.75;;;24.40;92.20;;;;;;5090829;28;20399;-84
2021/08/26 10:14:46;;;;;;;7.45;3.70;;;24.40;91.60;;;;;;5072644;28;20020;-84
2021/08/26 10:17:13;;;;;;;5.38;3.47;;;24.40;91.90;;;;;;5090753;28;20442;-84
2021/08/26 10:19:40;;;;;;;5.57;3.40;;;24.60;91.80;;;;;;5090629;28;20103;-84
2021/08/26 10:22:06;;;;;;;5.65;3.45;;;24.60;90.60;;;;;;5091101;28;20012;-84
2021/08/26 10:24:32;;;;;;;5.53;4.05;;;24.70;91.30;;;;;;5090430;28;20024;-84
2021/08/26 10:27:04;;;;;;;3.90;3.03;;;24.80;90.80;;;;;;5089311;28;20020;-84
2021/08/26 10:29:32;;;;;;;7.10;4.70;;;24.90;90.10;;;;;;5088037;28;20032;-84
2021/08/26 10:32:00;;;;;;;9.88;4.30;;;24.90;89.30;;;;;;5070020;28;20070;-84
2021/08/26 10:34:31;;;;;;;6.13;3.70;;;24.90;89.80;;;;;;5069913;28;20385;-84
2021/08/26 10:36:57;;;;;;;10.25;4.43;;;24.90;89.50;;;;;;5070140;28;20078;-84
2021/08/26 10:39:30;;;;;;;6.68;4.18;;;25.00;89.70;;;;;;5069999;28;20013;-84
2021/08/26 10:41:58;;;;;;;4.57;3.47;;;25.00;89.30;;;;;;5070381;28;20024;-85
2021/08/26 10:44:59;;;;;;;4.82;3.10;;;25.10;87.20;;;;;;5074410;28;20046;-85
2021/08/26 10:48:05;;;;;;;3.70;3.00;;;25.30;84.50;;;;;;5051242;28;20318;-84
2021/08/26 10:50:38;;;;;;;10.65;5.53;;;25.50;83.30;;;;;;5063940;28;20519;-85
2021/08/26 10:53:13;;;;;;;11.90;5.35;;;25.60;81.10;;;;;;5040082;28;20028;-85
2021/08/26 10:55:45;;;;;;;12.45;5.93;;;25.60;79.80;;;;;;5072045;28;20039;-84
2021/08/26 10:58:23;;;;;;;8.13;4.40;;;25.70;79.30;;;;;;5050478;28;20028;-84
2021/08/26 11:01:00;;;;;;;5.55;3.42;;;25.80;78.30;;;;;;5035209;28;20393;-85
2021/08/26 11:03:35;;;;;;;7.15;3.42;;;25.90;77.30;;;;;;5066627;28;20108;-83
2021/08/26 11:06:19;;;;;;;7.38;3.97;;;25.90;76.40;;;;;;5044730;28;20083;-85
2021/08/26 11:08:56;;;;;;;7.65;3.92;;;25.90;76.40;;;;;;5069914;28;20020;-82
2021/08/26 11:11:27;;;;;;;9.80;3.85;;;26.10;75.80;;;;;;5069528;28;20033;-83
2021/08/26 11:14:02;;;;;;;6.28;3.50;;;26.20;74.00;;;;;;5069281;28;20384;-83
2021/08/26 11:16:28;;;;;;;7.60;3.83;;;26.10;72.90;;;;;;5052246;28;20012;-83
2021/08/26 11:18:55;;;;;;;9.52;3.58;;;26.10;73.20;;;;;;5070072;28;20522;-83
2021/08/26 11:21:43;;;;;;;6.88;3.75;;;26.30;72.40;;;;;;5066668;28;20137;-83
2021/08/26 11:24:12;;;;;;;5.72;3.90;;;26.40;71.40;;;;;;5052379;28;20111;-83
2021/08/26 11:26:55;;;;;;;4.90;3.63;;;26.40;71.30;;;;;;5069812;28;20047;-83
2021/08/26 11:29:20;;;;;;;8.15;3.63;;;26.50;71.50;;;;;;5070461;28;20024;-83
2021/08/26 11:31:55;;;;;;;6.05;3.60;;;26.70;69.70;;;;;;5068640;28;20039;-84
2021/08/26 11:34:27;;;;;;;4.75;3.70;;;26.80;69.10;;;;;;5050630;28;20043;-83
2021/08/26 11:36:57;;;;;;;9.18;3.50;;;27.00;69.60;;;;;;5056191;28;20012;-76
2021/08/26 11:39:23;;;;;;;5.65;4.38;;;26.90;70.00;;;;;;5052844;28;20409;-76
2021/08/26 11:41:49;;;;;;;5.88;3.88;;;26.80;69.50;;;;;;5070315;28;20484;-76
2021/08/26 11:44:15;;;;;;;10.50;4.32;;;26.80;70.70;;;;;;5072578;28;20035;-77
2021/08/26 11:46:41;;;;;;;6.15;3.50;;;26.80;70.90;;;;;;5069225;28;20099;-76
2021/08/26 11:49:07;;;;;;;8.50;4.13;;;26.80;69.40;;;;;;5068484;28;20082;-76
2021/08/26 11:51:33;;;;;;;4.65;3.53;;;26.90;69.30;;;;;;5050344;28;20016;-77
2021/08/26 11:54:21;;;;;;;6.38;3.40;;;26.90;67.20;;;;;;5068658;28;20028;-76
2021/08/26 11:56:53;;;;;;;4.35;2.92;;;27.00;67.40;;;;;;5068066;28;20048;-77
2021/08/26 11:59:39;;;;;;;5.70;3.92;;;27.30;67.80;;;;;;5070457;28;20016;-76
2021/08/26 12:02:18;;;;;;;4.15;3.30;;;27.30;65.50;;;;;;5064262;28;20048;-76
2021/08/26 12:04:46;;;;;;;9.52;3.97;;;27.20;65.40;;;;;;5068243;28;20415;-77
2021/08/26 12:07:32;;;;;;;7.00;3.80;;;27.30;66.20;;;;;;5051650;28;20423;-77
2021/08/26 12:10:05;;;;;;;6.60;3.90;;;27.30;66.50;;;;;;5069896;28;20021;-78
2021/08/26 12:12:31;;;;;;;9.00;4.78;;;27.50;65.80;;;;;;5071700;28;20045;-77
2021/08/26 12:14:57;;;;;;;5.88;4.00;;;27.60;65.50;;;;;;5050963;28;20331;-78
2021/08/26 12:17:23;;;;;;;6.68;4.20;;;27.70;65.00;;;;;;5070472;28;20492;-78
2021/08/26 12:19:52;;;;;;;8.25;4.10;;;27.60;63.50;;;;;;5069729;28;20024;-78
2021/08/26 12:22:24;;;;;;;9.40;4.53;;;27.60;64.30;;;;;;5065838;28;20025;-78
2021/08/26 12:24:59;;;;;;;5.57;4.00;;;27.70;63.80;;;;;;5068269;28;20088;-78
2021/08/26 12:27:28;;;;;;;6.35;4.10;;;27.90;64.60;;;;;;5079216;28;20024;-77
2021/08/26 12:29:54;;;;;;;9.70;3.80;;;28.00;61.40;;;;;;5078815;28;20109;-79
2021/08/26 12:32:35;;;;;;;7.38;3.80;;;28.00;62.00;;;;;;5079286;28;20332;-77
2021/08/26 12:35:20;;;;;;;5.55;4.00;;;28.00;61.10;;;;;;5079013;28;20300;-77
2021/08/26 12:38:01;;;;;;;6.47;4.07;;;27.90;60.70;;;;;;5078829;28;20232;-76
2021/08/26 12:40:31;;;;;;;6.55;4.38;;;28.10;61.80;;;;;;5071923;28;20063;-76
2021/08/26 12:43:06;;;;;;;9.90;4.30;;;28.20;61.80;;;;;;5078872;28;20035;-76
2021/08/26 12:45:35;;;;;;;8.45;6.80;;;28.40;58.50;;;;;;5079463;28;20020;-76
2021/08/26 12:48:27;;;;;;;7.00;4.78;;;28.40;59.60;;;;;;5075539;28;20070;-76
2021/08/26 12:51:08;;;;;;;7.30;4.53;;;28.50;59.70;;;;;;5072008;28;20439;-76
2021/08/26 12:53:34;;;;;;;5.50;4.00;;;28.60;58.20;;;;;;5071373;28;20063;-76
2021/08/26 12:56:15;;;;;;;7.50;3.65;;;28.60;58.80;;;;;;5073164;28;20082;-77